createdAt,value
2022-11-29T21:57:39.011Z,0.47
2022-11-29T22:00:09.349Z,0.51
2022-11-29T22:02:37.364Z,0.50
2022-11-29T22:05:05.260Z,0.48
2022-11-29T22:07:32.616Z,0.44
2022-11-29T22:10:09.999Z,0.42
2022-11-29T22:12:49.313Z,0.39
2022-11-29T22:15:24.519Z,0.38
2022-11-29T22:17:54.271Z,0.38
2022-11-29T22:20:21.642Z,0.37
2022-11-29T22:22:48.940Z,0.40
2022-11-29T22:25:16.747Z,0.43
2022-11-29T22:27:43.930Z,0.46
2022-11-29T22:30:12.461Z,0.47
2022-11-29T22:32:39.567Z,0.44
2022-11-29T22:35:07.739Z,0.43
2022-11-29T22:37:34.830Z,0.39
2022-11-29T22:40:02.049Z,0.33
2022-11-29T22:42:29.849Z,0.28
2022-11-29T22:44:57.236Z,0.23
2022-11-29T22:47:24.362Z,0.20
2022-11-29T22:49:51.573Z,0.18
2022-11-29T22:52:18.669Z,0.18
2022-11-29T22:54:46.027Z,0.20
2022-11-29T22:57:13.279Z,0.22
2022-11-29T22:59:40.335Z,0.23
2022-11-29T23:02:08.019Z,0.24
2022-11-29T23:04:35.442Z,0.24
2022-11-29T23:07:02.781Z,0.21
2022-11-29T23:09:30.240Z,0.21
2022-11-29T23:11:58.005Z,0.20
2022-11-29T23:14:26.079Z,0.20
2022-11-29T23:16:53.491Z,0.20
2022-11-29T23:19:21.056Z,0.20
2022-11-29T23:21:48.558Z,0.22
2022-11-29T23:24:16.322Z,0.25
2022-11-29T23:26:47.095Z,0.23
2022-11-29T23:29:16.150Z,0.20
2022-11-29T23:31:44.292Z,0.19
2022-11-29T23:34:12.187Z,0.14
2022-11-29T23:36:39.793Z,0.12
2022-11-29T23:39:07.768Z,0.10
2022-11-29T23:41:34.980Z,0.11
2022-11-29T23:44:03.672Z,0.13
2022-11-29T23:46:31.016Z,0.13
2022-11-29T23:48:58.591Z,0.14
2022-11-29T23:51:25.926Z,0.15
2022-11-29T23:53:55.844Z,0.15
2022-11-29T23:56:24.019Z,0.14
2022-11-29T23:58:51.511Z,0.12
